Portada
METAR-TAF:

METAR-TAF

Aeropuertos :

Aeropuerto de Bilbao

Bilbao, España

latitud: 43-18N, longitud: 002-56W, altitud: 42 m

Observación

El informe se hizo hace 33 minutos, a las 01:30 UTC
Viento 8 kt del sureste, variando entre este-noreste y sur
Temperatura 10°C
Humedad 71%
Presión 1019 hPa
Visibilidad 10 km o más
sin nubes por debajo de 1500 m y sin presencia de cumulonimbus.

METAR: LEBB 240130Z AUTO 14008KT 070V190 CAVOK 10/05 Q1019

Hora: 03:03 (02:03 UTC)

Pronóstico

El informe se hizo hace 3 horas y 3 minutos, a las 23:00 UTC
Pronóstico válido del 24 a las 00 UTC al 24 a las 24 UTC
Viento 9 kt del sureste
Visibilidad 10 km o más
sin nubes por debajo de 1500 m y sin presencia de cumulonimbus.

TAF: LEBB 232300Z 2400/2424 14009KT CAVOK TX15/2414Z TN07/2407Z

Observaciones y pronósticos meteorológicos de más de 4000 aeropuertos (mensajes METAR y TAF).

Los puntos amarillos y rojos representan las estaciones disponibles.

Ponga el ratón en el punto deseado para ver el nombre de la estación.

Haga clic para ver las observaciones y los pronósticos meteorológicos.

Para cambiar el mapa : haga clic en los botones verdes con una cruz de color negro para hacer un zoom, en el botón verde con un guión para alejar o en las flechas verdes para mapas adyacentes.


METAR-TAF: